createdAt,value
2019-04-23T00:02:19.759Z,92.20
2019-04-23T00:04:47.911Z,92.50
2019-04-23T00:10:01.154Z,94.10
2019-04-23T00:12:38.069Z,94.90
2019-04-23T00:15:05.154Z,95.00
2019-04-23T00:17:38.532Z,95.80
2019-04-23T00:20:06.734Z,95.80
2019-04-23T00:22:36.974Z,96.50
2019-04-23T00:27:44.242Z,96.60
2019-04-23T00:30:14.957Z,97.00
2019-04-23T00:32:44.631Z,97.90
2019-04-23T00:35:12.562Z,98.70
2019-04-23T00:38:02.208Z,99.40
2019-04-23T00:40:10.195Z,99.80
2019-04-23T00:42:49.006Z,99.90
2019-04-23T00:45:16.799Z,99.90
2019-04-23T00:47:46.606Z,99.90
2019-04-23T00:50:22.862Z,99.90
2019-04-23T00:52:48.761Z,99.90
2019-04-23T00:55:26.164Z,99.90
2019-04-23T00:57:50.454Z,99.90
2019-04-23T01:00:29.116Z,99.90
2019-04-23T01:02:57.330Z,99.90
2019-04-23T01:05:27.658Z,99.90
2019-04-23T01:07:49.983Z,99.90
2019-04-23T01:10:29.204Z,99.90
2019-04-23T01:13:11.272Z,99.90
2019-04-23T01:15:41.183Z,99.90
2019-04-23T01:18:14.135Z,99.90
2019-04-23T01:20:43.970Z,99.90
2019-04-23T01:22:54.915Z,99.90
2019-04-23T01:25:45.137Z,99.90
2019-04-23T01:31:02.196Z,99.90
2019-04-23T01:33:40.767Z,99.90
2019-04-23T01:36:16.215Z,99.90
2019-04-23T01:38:42.259Z,99.90
2019-04-23T01:41:09.703Z,99.90
2019-04-23T01:43:38.109Z,99.90
2019-04-23T01:46:08.085Z,99.90
2019-04-23T01:48:40.548Z,99.90
2019-04-23T01:51:04.334Z,99.90
2019-04-23T01:53:41.267Z,99.90
2019-04-23T01:56:14.001Z,99.90
2019-04-23T01:58:45.124Z,99.90
2019-04-23T02:01:11.653Z,99.90
2019-04-23T02:03:46.649Z,99.90
2019-04-23T02:11:31.596Z,99.90
2019-04-23T02:13:55.364Z,99.90
2019-04-23T02:16:26.220Z,99.90
2019-04-23T02:19:12.545Z,99.90
2019-04-23T02:21:38.206Z,99.90
2019-04-23T02:24:14.473Z,99.90
2019-04-23T02:26:36.879Z,99.90
2019-04-23T02:29:15.945Z,99.90
2019-04-23T02:31:57.746Z,99.90
2019-04-23T02:34:48.770Z,99.90
2019-04-23T02:36:59.830Z,99.90
2019-04-23T02:39:26.385Z,99.90
2019-04-23T02:44:36.652Z,99.90
2019-04-23T02:47:03.429Z,99.90
2019-04-23T02:49:27.229Z,99.90
2019-04-23T02:59:28.843Z,99.90
2019-04-23T03:02:17.505Z,99.90
2019-04-23T03:04:47.751Z,99.90
2019-04-23T03:07:16.025Z,99.90
2019-04-23T03:12:18.479Z,99.90
2019-04-23T03:14:46.231Z,99.90
2019-04-23T03:17:11.167Z,99.90
2019-04-23T03:19:47.544Z,99.90
2019-04-23T03:22:25.151Z,99.90
2019-04-23T03:25:23.487Z,99.90
2019-04-23T03:27:42.085Z,99.90
2019-04-23T03:36:13.737Z,99.90
2019-04-23T03:37:55.848Z,99.90
2019-04-23T03:42:57.690Z,99.90
2019-04-23T03:45:37.176Z,99.90
2019-04-23T03:48:00.820Z,99.90
2019-04-23T03:52:57.267Z,99.90
2019-04-23T03:58:08.119Z,99.90
2019-04-23T04:00:39.741Z,99.90
2019-04-23T04:03:10.366Z,99.90
2019-04-23T04:05:49.318Z,99.90
2019-04-23T04:08:13.233Z,99.90
2019-04-23T04:10:44.735Z,99.90
2019-04-23T04:13:20.066Z,99.90
2019-04-23T04:25:49.962Z,99.90
2019-04-23T04:28:17.648Z,99.90
2019-04-23T04:33:36.505Z,99.90
2019-04-23T04:36:12.699Z,99.90
2019-04-23T04:38:36.513Z,99.90
2019-04-23T04:43:32.142Z,99.90
2019-04-23T04:48:33.311Z,99.90
2019-04-23T04:53:47.800Z,99.90
2019-04-23T04:56:14.484Z,99.90
2019-04-23T04:58:40.738Z,99.90
2019-04-23T05:01:10.015Z,99.90
2019-04-23T05:03:29.586Z,99.90
2019-04-23T05:08:38.311Z,99.90
2019-04-23T05:11:23.310Z,99.90
2019-04-23T05:16:12.434Z,99.90
2019-04-23T05:21:12.233Z,99.90
2019-04-23T05:26:17.789Z,99.90
2019-04-23T05:31:21.123Z,99.90
2019-04-23T05:33:46.488Z,99.90
2019-04-23T05:36:34.351Z,99.90
2019-04-23T05:39:07.685Z,99.90
2019-04-23T05:41:22.153Z,99.90
2019-04-23T05:43:55.799Z,99.90
2019-04-23T05:46:28.708Z,99.90
2019-04-23T05:48:52.609Z,99.90
2019-04-23T05:51:31.190Z,99.90
2019-04-23T05:53:51.273Z,99.90
2019-04-23T05:56:27.468Z,99.90
2019-04-23T05:59:04.183Z,99.90
2019-04-23T06:01:49.866Z,99.90
2019-04-23T06:04:17.639Z,99.90
2019-04-23T06:06:54.151Z,99.90
2019-04-23T06:09:11.232Z,99.90
2019-04-23T06:11:47.340Z,99.90
2019-04-23T06:21:44.856Z,99.90
2019-04-23T06:24:16.322Z,99.90
2019-04-23T06:29:20.511Z,99.90
2019-04-23T06:31:47.533Z,99.90
2019-04-23T06:34:18.551Z,99.90
2019-04-23T06:36:46.593Z,99.90
2019-04-23T06:39:23.344Z,99.90
2019-04-23T06:41:49.932Z,99.90
2019-04-23T06:46:57.312Z,99.90
2019-04-23T06:49:28.430Z,99.90
2019-04-23T06:52:07.093Z,99.90
2019-04-23T06:54:27.896Z,99.90
2019-04-23T07:04:43.400Z,99.90
2019-04-23T07:07:24.084Z,99.90
2019-04-23T07:09:27.440Z,99.90
2019-04-23T07:12:05.792Z,99.90
2019-04-23T07:14:44.791Z,99.90
2019-04-23T07:17:03.920Z,99.90
2019-04-23T07:22:14.668Z,99.90
2019-04-23T07:24:41.977Z,99.90
2019-04-23T07:27:13.606Z,99.90
2019-04-23T07:29:41.754Z,99.90
2019-04-23T07:32:11.858Z,99.90
2019-04-23T07:34:49.809Z,99.90
2019-04-23T07:37:32.763Z,98.60
2019-04-23T07:40:11.403Z,97.10
2019-04-23T07:45:10.135Z,98.30
2019-04-23T07:48:06.555Z,98.00
2019-04-23T07:50:33.530Z,94.30
2019-04-23T07:53:05.640Z,93.40
2019-04-23T07:55:41.414Z,94.00
2019-04-23T07:58:10.575Z,93.60
2019-04-23T08:00:41.393Z,94.00
2019-04-23T08:03:10.959Z,95.20
2019-04-23T08:08:21.438Z,92.30
2019-04-23T08:10:46.705Z,91.90
2019-04-23T08:13:16.095Z,91.50
2019-04-23T08:15:43.432Z,91.70
2019-04-23T08:18:13.442Z,91.40
2019-04-23T08:23:38.247Z,91.50
2019-04-23T08:26:26.778Z,90.40
2019-04-23T08:29:03.601Z,87.50
2019-04-23T08:31:35.151Z,84.70
2019-04-23T08:34:09.169Z,85.10
2019-04-23T08:38:56.902Z,79.60
2019-04-23T08:41:33.791Z,77.00
2019-04-23T08:44:27.311Z,76.80
2019-04-23T08:47:12.731Z,72.90
2019-04-23T08:49:47.629Z,70.10
2019-04-23T08:54:48.300Z,67.20
2019-04-23T08:57:21.498Z,68.30
2019-04-23T08:59:45.473Z,66.70
2019-04-23T09:02:24.202Z,64.40
2019-04-23T09:04:50.238Z,64.20
2019-04-23T09:09:50.801Z,63.60
2019-04-23T09:12:24.221Z,63.10
2019-04-23T09:14:51.147Z,63.50
2019-04-23T09:20:13.287Z,61.80
2019-04-23T09:24:55.513Z,63.00
2019-04-23T09:27:26.305Z,61.80
2019-04-23T09:30:00.923Z,63.80
2019-04-23T09:40:54.439Z,59.80
2019-04-23T09:43:08.716Z,58.70
2019-04-23T09:45:46.441Z,57.60
2019-04-23T09:48:26.713Z,56.60
2019-04-23T09:50:50.928Z,55.50
2019-04-23T09:55:45.493Z,53.70
2019-04-23T10:00:56.140Z,53.50
2019-04-23T10:03:17.776Z,52.90
2019-04-23T10:05:37.285Z,53.50
2019-04-23T10:08:10.359Z,51.90
2019-04-23T10:10:32.249Z,51.70
2019-04-23T10:13:02.271Z,50.20
2019-04-23T10:15:38.175Z,51.00
2019-04-23T10:18:04.483Z,51.50
2019-04-23T10:20:34.488Z,50.50
2019-04-23T10:23:04.292Z,50.20
2019-04-23T10:25:34.133Z,50.20
2019-04-23T10:28:10.522Z,50.00
2019-04-23T10:30:38.421Z,49.90
2019-04-23T10:33:09.586Z,49.90
2019-04-23T10:35:49.240Z,49.70
2019-04-23T10:38:14.846Z,49.30
2019-04-23T10:40:46.775Z,49.90
2019-04-23T10:43:17.160Z,49.60
2019-04-23T10:46:27.993Z,48.90
2019-04-23T10:51:41.269Z,47.20
2019-04-23T10:54:26.476Z,48.20
2019-04-23T10:57:01.658Z,47.10
2019-04-23T10:59:38.883Z,47.00
2019-04-23T11:07:30.736Z,45.70
2019-04-23T11:10:52.493Z,46.40
2019-04-23T11:12:42.126Z,45.90
2019-04-23T11:15:16.573Z,45.90
2019-04-23T11:17:38.785Z,45.60
2019-04-23T11:20:07.450Z,45.20
2019-04-23T11:25:15.537Z,48.00
2019-04-23T11:27:40.592Z,48.90
2019-04-23T11:30:19.113Z,47.50
2019-04-23T11:35:22.731Z,46.80
2019-04-23T11:37:48.041Z,46.70
2019-04-23T11:40:19.952Z,46.30
2019-04-23T11:42:54.558Z,45.90
2019-04-23T11:45:24.861Z,45.30
2019-04-23T11:48:21.939Z,43.30
2019-04-23T11:50:39.569Z,45.70
2019-04-23T11:55:33.812Z,44.80
2019-04-23T11:57:59.296Z,45.10
2019-04-23T12:00:31.798Z,44.60
2019-04-23T12:03:07.651Z,44.30
2019-04-23T12:05:54.701Z,44.70
2019-04-23T12:08:36.492Z,45.10
2019-04-23T12:11:27.485Z,44.60
2019-04-23T12:13:38.108Z,43.60
2019-04-23T12:16:00.468Z,43.90
2019-04-23T12:21:06.686Z,44.90
2019-04-23T12:23:54.781Z,43.20
2019-04-23T12:26:15.677Z,43.10
2019-04-23T12:28:43.895Z,42.40
2019-04-23T12:31:17.763Z,43.20
2019-04-23T12:36:33.981Z,41.70
2019-04-23T12:38:56.805Z,41.40
2019-04-23T12:41:28.297Z,41.80
2019-04-23T12:44:03.175Z,42.00
2019-04-23T12:46:41.410Z,41.20
2019-04-23T12:49:26.923Z,41.20
2019-04-23T12:51:41.271Z,39.80
2019-04-23T12:54:17.519Z,39.60
2019-04-23T12:56:48.085Z,39.70
2019-04-23T12:59:07.004Z,40.10
2019-04-23T13:01:54.091Z,40.80
2019-04-23T13:04:09.268Z,41.10
2019-04-23T13:06:44.872Z,41.30
2019-04-23T13:11:50.117Z,40.00
2019-04-23T13:14:30.077Z,40.60
2019-04-23T13:17:02.684Z,39.80
2019-04-23T13:19:33.331Z,40.60
2019-04-23T13:24:39.215Z,37.50
2019-04-23T13:27:15.814Z,37.50
2019-04-23T13:32:04.461Z,37.60
2019-04-23T13:34:48.153Z,37.60
2019-04-23T13:37:21.633Z,37.70
2019-04-23T13:39:45.427Z,39.20
2019-04-23T13:42:22.786Z,38.60
2019-04-23T13:44:51.518Z,38.60
2019-04-23T13:47:27.999Z,38.90
2019-04-23T13:49:55.024Z,39.60
2019-04-23T13:52:51.669Z,39.40
2019-04-23T13:55:04.576Z,38.20
2019-04-23T14:00:01.847Z,39.10
2019-04-23T14:05:06.383Z,39.00
2019-04-23T14:07:43.990Z,38.90
2019-04-23T14:10:25.602Z,38.90
2019-04-23T14:12:41.609Z,38.10
2019-04-23T14:15:28.310Z,37.90
2019-04-23T14:17:59.889Z,37.80
2019-04-23T14:20:19.052Z,38.40
2019-04-23T14:23:00.325Z,39.30
2019-04-23T14:28:01.305Z,38.10
2019-04-23T14:32:54.344Z,37.80
2019-04-23T14:35:28.485Z,39.00
2019-04-23T14:38:11.308Z,39.40
2019-04-23T14:40:54.247Z,39.10
2019-04-23T14:48:09.914Z,41.40
2019-04-23T14:53:20.220Z,41.80
2019-04-23T14:58:27.278Z,42.10
2019-04-23T15:03:30.676Z,41.10
2019-04-23T15:06:04.919Z,41.50
2019-04-23T15:08:34.259Z,42.10
2019-04-23T15:13:28.073Z,42.50
2019-04-23T15:16:11.464Z,42.60
2019-04-23T15:18:55.113Z,42.30
2019-04-23T15:21:37.643Z,42.70
2019-04-23T15:24:00.266Z,43.20
2019-04-23T15:28:30.211Z,43.70
2019-04-23T15:34:03.758Z,43.50
2019-04-23T15:36:32.679Z,43.90
2019-04-23T15:41:32.130Z,43.40
2019-04-23T15:44:07.354Z,44.10
2019-04-23T15:46:32.961Z,44.30
2019-04-23T15:49:07.294Z,44.70
2019-04-23T15:51:38.979Z,44.90
2019-04-23T15:54:10.883Z,45.00
2019-04-23T16:01:34.126Z,46.30
2019-04-23T16:03:41.882Z,47.10
2019-04-23T16:06:12.759Z,47.90
2019-04-23T16:16:46.403Z,49.50
2019-04-23T16:19:20.650Z,49.40
2019-04-23T16:22:03.766Z,49.10
2019-04-23T16:26:59.662Z,49.90
2019-04-23T16:31:58.843Z,53.90
2019-04-23T16:37:02.569Z,52.50
2019-04-23T16:39:48.305Z,53.60
2019-04-23T16:42:06.040Z,53.20
2019-04-23T16:44:38.776Z,56.40
2019-04-23T16:47:18.684Z,56.30
2019-04-23T16:49:36.842Z,56.30
2019-04-23T16:52:07.882Z,57.10
2019-04-23T16:54:45.398Z,56.30
2019-04-23T16:57:24.452Z,57.20
2019-04-23T16:59:51.482Z,55.50
2019-04-23T17:02:14.907Z,56.20
2019-04-23T17:04:49.973Z,57.20
2019-04-23T17:07:06.678Z,57.70
2019-04-23T17:10:38.159Z,57.70
2019-04-23T17:12:16.284Z,58.20
2019-04-23T17:14:48.212Z,58.60
2019-04-23T17:17:14.794Z,58.50
2019-04-23T17:19:56.971Z,58.30
2019-04-23T17:22:17.695Z,59.60
2019-04-23T17:25:01.141Z,59.20
2019-04-23T17:29:57.939Z,58.60
2019-04-23T17:32:20.972Z,59.10
2019-04-23T17:35:09.614Z,59.40
2019-04-23T17:37:35.194Z,61.70
2019-04-23T17:42:45.459Z,60.30
2019-04-23T17:45:30.765Z,60.10
2019-04-23T17:47:57.635Z,61.00
2019-04-23T17:50:28.653Z,61.00
2019-04-23T17:52:56.287Z,62.00
2019-04-23T17:55:35.849Z,65.60
2019-04-23T17:57:58.902Z,64.80
2019-04-23T18:00:36.183Z,65.90
2019-04-23T18:03:06.012Z,67.00
2019-04-23T18:05:43.965Z,64.00
2019-04-23T18:08:14.775Z,67.10
2019-04-23T18:13:13.652Z,67.00
2019-04-23T18:15:53.354Z,66.20
2019-04-23T18:18:16.567Z,67.10
2019-04-23T18:21:35.713Z,67.60
2019-04-23T18:24:11.029Z,69.00
2019-04-23T18:26:45.961Z,71.70
2019-04-23T18:29:27.828Z,70.90
2019-04-23T18:34:43.654Z,71.40
2019-04-23T18:37:09.245Z,74.80
2019-04-23T18:39:37.317Z,74.80
2019-04-23T19:53:32.219Z,93.40
2019-04-23T19:55:58.799Z,93.20
2019-04-23T19:58:27.404Z,93.90
2019-04-23T20:06:03.141Z,98.60
2019-04-23T20:08:34.030Z,99.90
2019-04-23T20:10:57.823Z,99.90
2019-04-23T20:13:40.751Z,99.90
2019-04-23T20:18:42.982Z,99.90
2019-04-23T20:20:58.902Z,99.90
2019-04-23T20:23:58.634Z,99.90
2019-04-23T20:29:14.842Z,99.90
2019-04-23T20:34:24.554Z,99.90
2019-04-23T20:36:46.168Z,99.90
2019-04-23T20:44:47.513Z,99.90
2019-04-23T20:52:06.305Z,99.90
2019-04-23T20:54:42.129Z,99.90
2019-04-23T20:57:30.566Z,99.90
2019-04-23T20:59:56.779Z,99.90
2019-04-23T21:02:54.087Z,99.90
2019-04-23T21:05:10.048Z,99.90
2019-04-23T21:10:18.131Z,99.90
2019-04-23T21:15:22.974Z,99.90
2019-04-23T21:22:47.788Z,99.90
2019-04-23T21:25:14.447Z,99.90
2019-04-23T21:28:03.185Z,99.90
2019-04-23T21:30:59.424Z,99.90
2019-04-23T21:36:11.297Z,99.90
2019-04-23T21:41:32.941Z,99.90
2019-04-23T21:44:10.272Z,99.90
2019-04-23T21:46:33.950Z,99.90
2019-04-23T21:49:09.437Z,99.90
2019-04-23T21:51:42.211Z,99.90
2019-04-23T21:56:35.564Z,99.90
2019-04-23T22:01:39.766Z,99.90
2019-04-23T22:11:58.817Z,99.90
2019-04-23T22:14:09.945Z,99.90
2019-04-23T22:19:17.051Z,99.90
2019-04-23T22:21:47.519Z,99.90
2019-04-23T22:29:18.818Z,99.90
2019-04-23T22:34:22.269Z,99.90
2019-04-23T22:37:03.856Z,99.80
2019-04-23T22:39:26.901Z,98.00
2019-04-23T22:44:30.552Z,94.70
2019-04-23T22:47:04.000Z,94.10
2019-04-23T22:52:11.257Z,92.60
2019-04-23T22:54:31.873Z,90.10
2019-04-23T22:57:09.376Z,89.90
2019-04-23T22:59:48.717Z,87.60
2019-04-23T23:02:14.799Z,86.60
2019-04-23T23:07:28.885Z,85.70
2019-04-23T23:10:13.618Z,84.40
2019-04-23T23:12:36.546Z,85.50
2019-04-23T23:15:19.403Z,84.80
2019-04-23T23:17:42.981Z,86.00
2019-04-23T23:22:40.090Z,83.50
2019-04-23T23:25:16.821Z,82.70
2019-04-23T23:27:40.421Z,80.80
2019-04-23T23:32:40.857Z,79.20
2019-04-23T23:37:48.135Z,78.50
2019-04-23T23:40:20.371Z,77.30
2019-04-23T23:42:58.025Z,76.90
2019-04-23T23:45:21.605Z,76.90
2019-04-23T23:47:43.125Z,77.30
2019-04-23T23:50:25.566Z,76.30
2019-04-23T23:52:54.456Z,77.10
2019-04-23T23:55:19.872Z,76.00
2019-04-23T23:57:56.832Z,76.00
